• Join FlightAware (Why Join?)
  • Login
  • US Flag 
11:19PM EDT


 

Airport Tracker/Info


-or-


 

Live Flight TrackerFlight Track Log ✈ UAL527 ✈ 05-Jun-2013 ✈ KIAH - KEWR

Flight Track Log - Related Links

Times and Time Zones

All times are in EDT time to prevent confusion due to time zone crossing. See the UAL527 flight status page for this flight to view local times or setup timezone preferences in your user account.

Time Position Orientation Groundspeed Altitude Reporting Facility
EDT Latitude Longitude Course Direction KTS MPH feet Rate Location/Type
07:11AM 29.9569 -95.3369 99° East 171 197 1,100  Level Houston Center
07:11AM 29.9353 -95.3058 129° Southeast 209 241 2,400 1,860 Climbing Houston Center
07:12AM 29.8981 -95.2453 125° Southeast 265 305 4,000 1,260 Climbing Houston Center
07:13AM 29.9249 -94.9115 102° East  Level FlightAware Approximate
07:13AM 29.8881 -95.2150 111° Southeast 251 289 4,200  Level Houston Center
07:13AM 29.8997 -95.1511 78° East 283 326 5,000 1,320 Climbing Houston Center
07:14AM 29.9086 -94.7700 95° East  Level FlightAware Approximate
07:14AM 29.9050 -95.1306 73° East 272 313 5,600  Level Houston Center
07:14AM 29.9161 -95.0792 76° East 275 316 7,500 3,000 Climbing Houston Center
07:15AM 29.8945 -94.6281 99° East  Level FlightAware Approximate
07:15AM 29.9175 -95.0431 87° East 283 326 8,700  Level Houston Center
07:15AM 29.9117 -94.9856 97° East 284 327 10,200 1,740 Climbing Houston Center
07:16AM 29.8744 -94.4872 99° East  Level FlightAware Approximate
07:16AM 29.9111 -94.9483 91° East 296 341 10,500  Level Houston Center
07:17AM 29.9025 -94.8392 95° East 337 388 13,500 2,700 Climbing Houston Center
07:18AM 29.8975 -94.7264 93° East 353 406 16,000 2,220 Climbing Houston Center
07:19AM 29.9144 -94.6094 80° East 370 426 18,000 2,160 Climbing Houston Center
07:20AM 29.9356 -94.4725 80° East 389 448 20,400 1,980 Climbing Houston Center
07:21AM 29.9536 -94.3411 81° East 407 468 22,100 1,620 Climbing Houston Center
07:22AM 29.9750 -94.2047 80° East 427 491 23,800 1,680 Climbing Houston Center
07:23AM 29.9967 -94.0628 80° East 444 511 25,600 1,740 Climbing Houston Center
07:24AM 30.0186 -93.9178 80° East 456 525 27,400 1,620 Climbing Houston Center
07:25AM 30.0411 -93.7708 80° East 464 534 28,900 1,320 Climbing Houston Center
07:26AM 30.0644 -93.6189 80° East 478 550 30,100 1,440 Climbing Houston Center
07:27AM 30.0906 -93.4322 81° East 496 571 31,900 1,860 Climbing Houston Center
07:28AM 30.1144 -93.2781 80° East 497 572 34,000 1,680 Climbing Houston Center
07:29AM 30.1369 -93.1289 80° East 482 555 35,400 1,260 Climbing Houston Center
07:30AM 30.1692 -92.9792 76° East 485 558 36,600 780 Climbing Houston Center
07:31AM 30.2042 -92.8339 74° East 474 545 37,000 180 Climbing Houston Center
07:32AM 30.2369 -92.6867 76° East 476 548 37,000  Level Houston Center
07:33AM 30.2725 -92.5394 74° East 477 549 37,000  Level Houston Center
07:34AM 30.3050 -92.3917 76° East 477 549 37,000  Level Houston Center
07:35AM 30.3406 -92.2358 75° East 474 545 37,000  Level Houston Center
07:36AM 30.3742 -92.0883 75° East 477 549 37,000  Level Houston Center
07:37AM 30.4147 -91.9119 75° East 475 547 37,000  Level Houston Center
07:38AM 30.4472 -91.7644 76° East 477 549 37,000  Level Houston Center
07:39AM 30.4822 -91.6150 75° East 481 554 37,000  Level Houston Center
07:40AM 30.5161 -91.4664 75° East 480 552 37,000  Level Houston Center
07:41AM 30.5444 -91.3336 76° East 473 544 37,000  Level Houston Center
07:42AM 30.5761 -91.1850 76° East 475 547 37,000  Level Houston Center
07:43AM 30.6158 -91.0075 75° East 473 544 37,000  Level Houston Center
07:44AM 30.6481 -90.8597 76° East 473 544 37,000  Level Houston Center
07:45AM 30.6800 -90.7119 76° East 472 543 37,000  Level Houston Center
07:46AM 30.7128 -90.5644 75° East 471 542 37,000  Level Houston Center
07:47AM 30.7431 -90.4167 77° East 470 541 37,000  Level Houston Center
07:48AM 30.7750 -90.2667 76° East 473 544 37,000  Level Houston Center
07:49AM 30.8067 -90.1164 76° East 476 548 37,000  Level Houston Center
07:50AM 30.8364 -89.9647 77° East 478 550 37,000  Level Houston Center
07:51AM 30.8672 -89.8136 77° East 478 550 37,000  Level Houston Center
07:52AM 30.8992 -89.6622 76° East 478 550 37,000  Level Houston Center
07:53AM 30.9306 -89.5100 76° East 480 552 37,000  Level Houston Center
07:55AM 30.9606 -89.3578 77° East 481 554 37,000  Level Houston Center
07:56AM 30.9911 -89.2067 77° East 480 552 37,000  Level Houston Center
07:57AM 31.0275 -89.0231 77° East 482 555 37,000  Level Houston Center
07:58AM 31.0528 -88.8897 77° East 478 550 37,000  Level Houston Center
07:59AM 31.0828 -88.7372 77° East 481 554 37,000  Level Houston Center
08:00AM 31.1175 -88.5678 76° East 481 554 37,000  Level Houston Center
08:01AM 31.1469 -88.4169 77° East 479 551 37,000  Level Houston Center
08:02AM 31.1786 -88.2675 76° East 476 548 37,000  Level Houston Center
08:03AM 31.2067 -88.1150 78° East 479 551 37,000  Level Houston Center
08:04AM 31.2353 -87.9703 77° East 478 550 37,000  Level Houston Center
08:05AM 31.2683 -87.7881 78° East 478 550 37,000  Level Houston Center
08:06AM 31.2967 -87.6369 78° East 478 550 37,000  Level Houston Center
08:07AM 31.3606 -87.5022 61° Northeast 482 555 37,000  Level Houston Center
08:08AM 31.4486 -87.3856 48° Northeast 481 554 37,000  Level Houston Center
08:09AM 31.5364 -87.2672 49° Northeast 483 556 37,000  Level Houston Center
08:10AM 31.6228 -87.1469 50° Northeast 485 558 37,000  Level Houston Center
08:11AM 31.7083 -87.0342 48° Northeast 478 550 37,000  Level Atlanta Center
08:12AM 31.7947 -86.9122 50° Northeast 478 550 37,000  Level Atlanta Center
08:13AM 31.8850 -86.7928 48° Northeast 478 550 37,000  Level Atlanta Center
08:14AM 31.9519 -86.6947 51° Northeast 478 550 37,000  Level Atlanta Center
08:15AM 32.0547 -86.5628 47° Northeast 483 556 37,000  Level Atlanta Center
08:16AM 32.1450 -86.4403 49° Northeast 483 556 37,000  Level Atlanta Center
08:17AM 32.2350 -86.3078 51° Northeast 471 542 37,000  Level Atlanta Center
08:18AM 32.3167 -86.1794 53° Northeast 477 549 37,000  Level Atlanta Center
08:19AM 32.4003 -86.0511 52° Northeast 487 560 37,000  Level Atlanta Center
08:20AM 32.4856 -85.9275 51° Northeast 487 560 37,000  Level Atlanta Center
08:21AM 32.5647 -85.8108 51° Northeast 486 559 37,000  Level Atlanta Center
08:22AM 32.6456 -85.6867 52° Northeast 486 559 37,000  Level Atlanta Center
08:23AM 32.7286 -85.5647 51° Northeast 481 554 37,000  Level Atlanta Center
08:24AM 32.8114 -85.4403 52° Northeast 481 554 37,000  Level Atlanta Center
08:25AM 32.8942 -85.3153 52° Northeast 481 554 37,000  Level Atlanta Center
08:26AM 32.9747 -85.1878 53° Northeast 481 554 37,000  Level Atlanta Center
08:27AM 33.0658 -85.0550 51° Northeast 475 547 37,000  Level Atlanta Center
08:28AM 33.1503 -84.9269 52° Northeast 475 547 37,000  Level Atlanta Center
08:29AM 33.2325 -84.8011 52° Northeast 480 552 37,000  Level Atlanta Center
08:30AM 33.3147 -84.6728 53° Northeast 488 562 37,000  Level Atlanta Center
08:31AM 33.3986 -84.5439 52° Northeast 488 562 37,000  Level Atlanta Center
08:32AM 33.4828 -84.4150 52° Northeast 488 562 37,000  Level Atlanta Center
08:33AM 33.5664 -84.2806 53° Northeast 488 562 37,000  Level Atlanta Center
08:34AM 33.6522 -84.1511 51° Northeast 488 562 37,000  Level Atlanta Center
08:35AM 33.7358 -84.0189 53° Northeast 488 562 37,000  Level Atlanta Center
08:36AM 33.8214 -83.8864 52° Northeast 488 562 37,000  Level Atlanta Center
08:37AM 33.8961 -83.7736 51° Northeast 488 562 37,000  Level Atlanta Center
08:38AM 33.9772 -83.6406 54° Northeast 488 562 37,000  Level Atlanta Center
08:39AM 34.0603 -83.5122 52° Northeast 483 556 37,000  Level Atlanta Center
08:40AM 34.1389 -83.3836 54° Northeast 477 549 37,000  Level Atlanta Center
08:41AM 34.2217 -83.2575 52° Northeast 482 555 37,000  Level Atlanta Center
08:42AM 34.3000 -83.1286 54° Northeast 482 555 37,000  Level Atlanta Center
08:43AM 34.3806 -82.9992 53° Northeast 482 555 37,000  Level Atlanta Center
08:44AM 34.4586 -82.8672 54° Northeast 482 555 37,000  Level Atlanta Center
08:45AM 34.5447 -82.7250 54° Northeast 477 549 37,000  Level Atlanta Center
08:46AM 34.6269 -82.6000 51° Northeast 482 555 37,000  Level Atlanta Center
08:47AM 34.6964 -82.4825 54° Northeast 482 555 37,000  Level Atlanta Center
08:48AM 34.7761 -82.3519 53° Northeast 482 555 37,000  Level Atlanta Center
08:49AM 34.8578 -82.2189 53° Northeast 482 555 37,000  Level Atlanta Center
08:50AM 34.9453 -82.0800 52° Northeast 476 548 37,000  Level Atlanta Center
08:51AM 35.0164 -81.9642 53° Northeast 476 548 37,000  Level Atlanta Center
08:52AM 35.0892 -81.8253 57° Northeast 481 554 37,000  Level Atlanta Center
08:53AM 35.1617 -81.6914 56° Northeast 473 544 37,000  Level Atlanta Center
08:54AM 35.2361 -81.5519 57° Northeast 484 557 37,000  Level Atlanta Center
08:55AM 35.3064 -81.4122 58° Northeast 484 557 37,000  Level Atlanta Center
08:56AM 35.3783 -81.2725 58° Northeast 489 563 37,000  Level Atlanta Center
08:57AM 35.4500 -81.1300 58° Northeast 489 563 37,000  Level Atlanta Center
08:58AM 35.5258 -80.9869 57° Northeast 495 570 37,000  Level Atlanta Center
08:59AM 35.5997 -80.8486 57° Northeast 490 564 37,000  Level Atlanta Center
09:00AM 35.6731 -80.7053 58° Northeast 490 564 37,000  Level Atlanta Center
09:01AM 35.7464 -80.5667 57° Northeast 490 564 37,000  Level Atlanta Center
09:03AM 35.8864 -80.2914 58° Northeast 500 575 37,000  Level Washington Center
09:04AM 35.9567 -80.1467 59° Northeast 493 567 37,000  Level Washington Center
09:05AM 36.0306 -80.0097 56° Northeast 488 562 37,000  Level Washington Center
09:06AM 36.1064 -79.8778 55° Northeast 481 554 37,000  Level Washington Center
09:07AM 36.1844 -79.7328 56° Northeast 484 557 37,000  Level Washington Center
09:08AM 36.2622 -79.5953 55° Northeast 489 563 37,000  Level Washington Center
09:09AM 36.3400 -79.4572 55° Northeast 484 557 37,000  Level Washington Center
09:10AM 36.4064 -79.3342 56° Northeast 478 550 37,000  Level Washington Center
09:11AM 36.4836 -79.1983 55° Northeast 478 550 37,000  Level Washington Center
09:12AM 36.5836 -79.0633 47° Northeast 478 550 37,000  Level Washington Center
09:13AM 36.6828 -78.9536 42° Northeast 478 550 37,000  Level Washington Center
09:14AM 36.7858 -78.8467 40° Northeast 472 543 37,000  Level Washington Center
09:15AM 36.8867 -78.7367 41° Northeast 472 543 37,000  Level Washington Center
09:16AM 36.9769 -78.6417 40° Northeast 472 543 37,000  Level Washington Center
09:17AM 37.0797 -78.5336 40° Northeast 472 543 37,000  Level Washington Center
09:18AM 37.1825 -78.4256 40° Northeast 472 543 37,000  Level Washington Center
09:19AM 37.2936 -78.3042 41° Northeast 477 549 37,000  Level Washington Center
09:20AM 37.3964 -78.1931 41° Northeast 477 549 37,000  Level Washington Center
09:21AM 37.4944 -78.0864 41° Northeast 472 543 37,000  Level Washington Center
09:22AM 37.5969 -77.9797 39° Northeast 472 543 37,100  Climbing Washington Center
09:23AM 37.6950 -77.8672 42° Northeast 472 543 37,000 -60 Descending Washington Center
09:24AM 37.7950 -77.7572 41° Northeast 472 543 37,000  Level Washington Center
09:25AM 37.8969 -77.6469 40° Northeast 472 543 37,000  Level Washington Center
09:26AM 37.9969 -77.5392 40° Northeast 472 543 37,000  Level Washington Center
09:27AM 38.0861 -77.4411 41° Northeast 472 543 37,000  Level Washington Center
09:28AM 38.1814 -77.3325 42° Northeast 466 536 37,000  Level Washington Center
09:29AM 38.2811 -77.2211 41° Northeast 466 536 37,000  Level Washington Center
09:30AM 38.3806 -77.1094 41° Northeast 466 536 37,000  Level Washington Center
09:31AM 38.4778 -77.0000 41° Northeast 466 536 37,000 -420 Level Washington Center
09:32AM 38.5792 -76.8878 41° Northeast 466 536 36,200 -900 Descending Washington Center
09:33AM 38.6761 -76.7778 42° Northeast 466 536 35,200 -1,020 Descending Washington Center
09:34AM 38.7711 -76.6647 43° Northeast 461 531 34,300 -960 Descending Washington Center
09:35AM 38.8678 -76.5542 42° Northeast 461 531 33,400 -720 Descending Washington Center
09:36AM 38.9603 -76.4486 42° Northeast 461 531 32,900 -1,080 Descending Washington Center
09:37AM 39.0506 -76.3428 42° Northeast 450 518 31,300 -1,500 Descending Washington Center
09:38AM 39.1492 -76.2286 42° Northeast 436 502 30,000 -1,800 Descending Washington Center
09:39AM 39.2331 -76.1356 41° Northeast 421 484 27,700 -1,920 Descending Washington Center
09:40AM 39.3147 -76.0394 42° Northeast 407 468 26,100 -1,560 Descending Washington Center
09:41AM 39.3964 -75.9406 43° Northeast 402 463 24,600 -1,320 Descending Washington Center
09:42AM 39.4842 -75.8417 41° Northeast 402 463 23,600 -1,080 Descending Washington Center
09:43AM 39.5697 -75.7397 43° Northeast 407 468 22,500 -1,080 Descending Washington Center
09:44AM 39.6531 -75.6428 42° Northeast 407 468 21,500 -1,320 Descending Washington Center
09:45AM 39.7344 -75.5431 43° Northeast 402 463 19,900 -1,800 Descending Washington Center
09:46AM 39.8136 -75.4456 43° Northeast 395 455 17,900 -1,740 Descending Washington Center
09:47AM 39.8842 -75.3617 42° Northeast 387 445 16,500 -1,680 Descending Washington Center
09:48AM 39.9589 -75.2694 43° Northeast 377 434 14,600 -1,920 Descending Washington Center
09:49AM 40.0317 -75.1822 43° Northeast 364 419 12,700 -1,500 Descending Washington Center
09:50AM 40.1333 -75.0667 41° Northeast 320 368 11,000 -1,320 Descending New York TRACON
09:51AM 40.1833 -74.9833 52° Northeast 296 341 9,700 -1,380 Descending New York TRACON
09:52AM 40.2500 -74.9167 37° Northeast 286 329 8,300 -900 Descending New York TRACON
09:53AM 40.2833 -74.8167 66° East 286 329 8,000 -600 Descending New York TRACON
09:54AM 40.3333 -74.7333 52° Northeast 282 325 7,200 -960 Descending New York TRACON
09:55AM 40.3667 -74.6500 62° Northeast 273 314 6,200 -1,260 Descending New York TRACON
09:56AM 40.4000 -74.5667 62° Northeast 270 311 4,800 -1,200 Descending New York TRACON
09:57AM 40.4333 -74.4833 62° Northeast 264 304 3,800 -780 Descending New York TRACON
09:58AM 40.4667 -74.4000 62° Northeast 260 299 3,300 -420 Descending New York TRACON
09:59AM 40.5000 -74.3167 62° Northeast 250 288 3,000 -180 Descending New York TRACON
10:00AM 40.5333 -74.2667 49° Northeast 204 235 3,000  Level New York TRACON